KPHN/PHN METAR and TAF weather

Enter ICAO airport designator
Station Type Date Time Source
KPHN METAR 2020/07/04 08:15 UTC NOAA

KPHN 040815Z AUTO 00000KT 10SM CLR 20/18 A3002 RMK AO2


Station Type Date Time Source
KPHN Decoded METAR 2020/07/04 08:15 UTC NOAA

St. Clair County International, MI, United States (KPHN) 42-55N 082-32W
Jul 04, 2020 - 04:15 AM EDT / 2020.07.04 0815 UTC
Wind: Calm:0
Visibility: 10 mile(s):0
Sky conditions: clear
Temperature: 68 F (20 C)
Dew Point: 64 F (18 C)
Relative Humidity: 88%
Pressure (altimeter): 30.02 in. Hg (1016 hPa)
ob: KPHN 040815Z AUTO 00000KT 10SM CLR 20/18 A3002 RMK AO2
cycle: 8

Station Type Date Time Source
KPHN TAF UTC NOAA

Error!

Example: see airport list